Time;durP1;ratioP1;P1;durP2;ratioP2;P2;SDS_P1;SDS_P2;PMS_P1;PMS_P2;Temp;Humidity;BMP_temperature;BMP_pressure;BME280_temperature;BME280_humidity;BME280_pressure;Samples;Min_cycle;Max_cycle;Signal;HPM_P1;HPM_P2
2023/09/29 00:01:26;;;;;;;24.73;16.55;;;21.70;71.30;;;;;;5090867;28;20267;-58
2023/09/29 00:03:51;;;;;;;29.55;16.88;;;21.70;70.80;;;;;;5081971;28;20555;-58
2023/09/29 00:06:17;;;;;;;27.08;16.38;;;21.70;71.00;;;;;;5091498;28;20123;-54
2023/09/29 00:08:45;;;;;;;31.58;17.30;;;21.60;70.80;;;;;;5092069;28;20103;-54
2023/09/29 00:11:15;;;;;;;25.20;16.48;;;21.60;71.20;;;;;;5090937;28;20510;-55
2023/09/29 00:13:41;;;;;;;23.08;15.77;;;21.60;70.80;;;;;;5092493;28;20017;-55
2023/09/29 00:16:07;;;;;;;22.75;15.98;;;21.60;70.70;;;;;;5092040;28;20032;-51
2023/09/29 00:18:33;;;;;;;26.55;16.88;;;21.60;70.90;;;;;;5082041;28;20031;-52
2023/09/29 00:20:59;;;;;;;24.15;15.85;;;21.60;70.70;;;;;;5090801;28;20032;-51
2023/09/29 00:23:25;;;;;;;23.52;15.07;;;21.60;70.70;;;;;;5089450;28;20107;-50
2023/09/29 00:25:51;;;;;;;23.52;14.68;;;21.60;70.50;;;;;;5090308;28;20028;-51
2023/09/29 00:28:17;;;;;;;26.42;14.98;;;21.60;70.60;;;;;;5089717;28;20043;-57
2023/09/29 00:30:42;;;;;;;26.48;15.40;;;21.60;70.70;;;;;;5091134;28;20023;-57
2023/09/29 00:33:09;;;;;;;24.33;14.40;;;21.60;70.30;;;;;;5090048;28;20048;-57
2023/09/29 00:35:35;;;;;;;21.98;14.73;;;21.60;70.30;;;;;;5090586;28;20028;-57
2023/09/29 00:38:01;;;;;;;24.50;15.30;;;21.60;70.40;;;;;;5090410;28;20577;-56
2023/09/29 00:40:28;;;;;;;24.48;14.82;;;21.60;70.10;;;;;;5072435;28;20102;-57
2023/09/29 00:42:54;;;;;;;24.23;14.15;;;21.60;70.30;;;;;;5089845;28;20077;-58
2023/09/29 00:45:26;;;;;;;20.63;13.60;;;21.60;70.20;;;;;;5072772;28;20028;-55
2023/09/29 00:47:57;;;;;;;23.17;13.70;;;21.60;70.40;;;;;;5061471;23;20625;-58
2023/09/29 00:50:28;;;;;;;24.50;13.55;;;21.60;69.80;;;;;;5049817;28;20021;-59
2023/09/29 00:52:58;;;;;;;21.02;13.48;;;21.60;70.00;;;;;;5052444;28;20028;-58
2023/09/29 00:55:27;;;;;;;21.13;14.00;;;21.60;70.10;;;;;;5053762;28;20241;-59
2023/09/29 00:57:56;;;;;;;32.15;14.15;;;21.60;69.80;;;;;;5037991;28;20017;-58
2023/09/29 01:02:54;;;;;;;30.65;13.77;;;21.60;69.80;;;;;;5019929;28;20440;-57
2023/09/29 01:05:20;;;;;;;23.10;14.23;;;21.60;69.60;;;;;;5034425;28;20029;-57
2023/09/29 01:07:46;;;;;;;20.23;14.00;;;21.60;69.60;;;;;;5034526;28;20028;-56
2023/09/29 01:10:15;;;;;;;23.40;13.98;;;21.60;69.40;;;;;;5034260;28;20362;-51
2023/09/29 01:12:41;;;;;;;23.40;13.32;;;21.60;69.50;;;;;;5034124;28;20018;-57
2023/09/29 01:15:13;;;;;;;21.20;13.38;;;21.60;69.50;;;;;;5036617;28;20498;-53
2023/09/29 01:17:41;;;;;;;21.13;13.80;;;21.60;69.30;;;;;;5024723;28;20428;-56
2023/09/29 01:20:15;;;;;;;21.98;12.80;;;21.60;69.20;;;;;;5033964;28;20029;-55
2023/09/29 01:22:46;;;;;;;28.30;13.93;;;21.50;69.30;;;;;;5034063;28;20432;-58
2023/09/29 01:25:17;;;;;;;21.02;13.57;;;21.50;69.00;;;;;;5033793;28;20488;-57
2023/09/29 01:27:43;;;;;;;21.58;13.82;;;21.50;69.10;;;;;;5031168;28;20079;-56
2023/09/29 01:30:10;;;;;;;24.00;13.93;;;21.50;69.00;;;;;;5024410;28;20021;-56
2023/09/29 01:32:37;;;;;;;18.23;12.88;;;21.50;69.10;;;;;;5020443;28;20022;-58
2023/09/29 01:35:04;;;;;;;20.02;13.18;;;21.50;69.40;;;;;;5029933;28;20053;-59
2023/09/29 01:37:30;;;;;;;19.80;12.93;;;21.50;68.70;;;;;;5024804;28;20032;-56
2023/09/29 01:39:56;;;;;;;16.67;12.82;;;21.50;69.30;;;;;;5026096;28;20026;-59
2023/09/29 01:42:22;;;;;;;18.42;12.48;;;21.40;69.00;;;;;;5031924;28;20444;-58
2023/09/29 01:44:49;;;;;;;19.67;12.82;;;21.40;68.60;;;;;;5025651;28;20022;-55
2023/09/29 01:47:14;;;;;;;20.95;12.30;;;21.50;69.50;;;;;;5028879;28;20779;-54
2023/09/29 01:49:40;;;;;;;18.73;12.48;;;21.40;68.90;;;;;;5026782;28;20057;-58
2023/09/29 01:52:06;;;;;;;19.55;12.70;;;21.40;68.40;;;;;;5032779;28;20027;-58
2023/09/29 01:54:32;;;;;;;18.38;12.02;;;21.40;68.50;;;;;;5046262;28;20396;-58
2023/09/29 01:57:01;;;;;;;17.55;12.45;;;21.40;68.70;;;;;;5033274;28;20083;-58
2023/09/29 01:59:28;;;;;;;18.27;12.52;;;21.40;68.60;;;;;;5029739;28;20037;-57
2023/09/29 02:01:54;;;;;;;17.40;12.07;;;21.40;68.60;;;;;;5031439;28;20029;-59
2023/09/29 02:04:20;;;;;;;18.75;12.65;;;21.40;68.30;;;;;;5028270;28;20385;-58
2023/09/29 02:06:46;;;;;;;18.83;11.85;;;21.40;68.30;;;;;;5025084;28;20083;-58
2023/09/29 02:09:11;;;;;;;17.88;12.02;;;21.40;68.40;;;;;;5032407;28;20029;-55
2023/09/29 02:11:42;;;;;;;18.10;12.05;;;21.40;68.00;;;;;;5024756;28;20107;-54
2023/09/29 02:14:07;;;;;;;17.85;11.77;;;21.40;68.10;;;;;;5032107;28;20056;-58
2023/09/29 02:16:38;;;;;;;20.85;11.90;;;21.40;68.00;;;;;;5022576;28;20082;-59
2023/09/29 02:19:06;;;;;;;22.33;12.52;;;21.40;67.90;;;;;;5030997;28;20033;-58
2023/09/29 02:21:32;;;;;;;18.90;11.85;;;21.40;67.80;;;;;;5018781;28;20026;-58
2023/09/29 02:23:58;;;;;;;17.63;11.90;;;21.30;67.90;;;;;;5032047;28;20512;-58
2023/09/29 02:26:28;;;;;;;16.73;11.45;;;21.30;67.50;;;;;;5032324;28;20163;-58
2023/09/29 02:28:55;;;;;;;17.38;11.00;;;21.30;67.70;;;;;;5032826;28;20029;-58
2023/09/29 02:31:22;;;;;;;16.38;11.50;;;21.40;67.80;;;;;;5021574;28;20516;-58
2023/09/29 02:33:50;;;;;;;18.98;11.75;;;21.30;67.80;;;;;;5031896;28;20425;-59
2023/09/29 02:36:16;;;;;;;20.17;12.57;;;21.30;67.70;;;;;;5028061;28;20033;-55
2023/09/29 02:38:42;;;;;;;17.83;12.02;;;21.30;67.50;;;;;;5025889;28;20021;-58
2023/09/29 02:41:09;;;;;;;20.33;11.93;;;21.30;67.60;;;;;;5028601;28;20501;-59
2023/09/29 02:43:34;;;;;;;17.02;12.57;;;21.30;67.40;;;;;;5025460;28;20083;-55
2023/09/29 02:46:00;;;;;;;16.13;11.77;;;21.30;67.60;;;;;;5032233;28;20025;-57
2023/09/29 02:48:27;;;;;;;18.27;13.52;;;21.30;67.50;;;;;;5028997;28;20119;-58
2023/09/29 02:50:53;;;;;;;17.92;12.25;;;21.30;67.40;;;;;;5027241;28;20497;-57
2023/09/29 02:53:20;;;;;;;18.40;12.05;;;21.30;67.40;;;;;;5031501;28;20444;-58
2023/09/29 02:55:46;;;;;;;15.35;11.63;;;21.30;67.50;;;;;;5033581;28;20148;-58
2023/09/29 02:58:12;;;;;;;18.58;12.60;;;21.30;67.40;;;;;;5034913;28;20033;-58
2023/09/29 03:00:42;;;;;;;17.23;12.07;;;21.30;67.50;;;;;;5030293;28;20017;-54
2023/09/29 03:03:09;;;;;;;20.00;13.20;;;21.30;67.30;;;;;;5031167;28;20049;-58
2023/09/29 03:05:35;;;;;;;20.70;12.63;;;21.30;67.40;;;;;;5030504;28;20117;-56
2023/09/29 03:08:01;;;;;;;18.67;12.98;;;21.30;67.40;;;;;;5026405;28;20060;-56
2023/09/29 03:10:30;;;;;;;18.17;12.43;;;21.30;67.10;;;;;;5031024;28;20030;-54
2023/09/29 03:12:56;;;;;;;16.63;13.18;;;21.30;67.40;;;;;;5031079;28;20053;-56
2023/09/29 03:15:23;;;;;;;23.13;13.40;;;21.30;67.70;;;;;;5027515;28;20037;-58
2023/09/29 03:17:49;;;;;;;18.63;13.02;;;21.30;67.10;;;;;;5031789;28;20492;-56
2023/09/29 03:20:16;;;;;;;25.17;13.35;;;21.20;67.30;;;;;;5021648;28;20023;-53
2023/09/29 03:22:46;;;;;;;17.60;13.32;;;21.30;67.10;;;;;;5029989;28;20448;-58
2023/09/29 03:25:20;;;;;;;20.65;13.13;;;21.20;67.10;;;;;;5028672;28;20029;-56
2023/09/29 03:27:48;;;;;;;19.42;13.15;;;21.30;67.00;;;;;;5028969;28;20029;-58
2023/09/29 03:30:15;;;;;;;22.77;14.52;;;21.30;67.20;;;;;;5031626;28;20022;-58
2023/09/29 03:32:42;;;;;;;18.88;13.95;;;21.20;66.70;;;;;;5030800;28;20029;-59
2023/09/29 03:35:08;;;;;;;21.02;14.10;;;21.20;66.70;;;;;;5022317;28;20397;-54
2023/09/29 03:37:37;;;;;;;22.25;14.18;;;21.20;66.70;;;;;;5030061;28;20048;-57
2023/09/29 03:40:08;;;;;;;19.92;14.13;;;21.20;66.90;;;;;;5035686;28;20033;-58
2023/09/29 03:42:35;;;;;;;22.10;14.00;;;21.20;66.80;;;;;;5023643;28;20056;-58
2023/09/29 03:45:05;;;;;;;23.52;14.75;;;21.20;66.80;;;;;;5023027;28;20477;-57
2023/09/29 03:47:33;;;;;;;19.02;14.23;;;21.30;66.60;;;;;;5029362;28;20022;-59
2023/09/29 03:49:59;;;;;;;28.15;16.42;;;21.20;66.50;;;;;;5024002;28;20022;-57
2023/09/29 03:52:25;;;;;;;21.85;16.02;;;21.20;66.50;;;;;;5020643;28;20034;-58
2023/09/29 03:54:51;;;;;;;28.38;19.63;;;21.20;66.60;;;;;;5031148;28;20099;-58
2023/09/29 03:57:17;;;;;;;29.42;19.38;;;21.20;66.30;;;;;;5020577;28;20061;-55
2023/09/29 03:59:44;;;;;;;26.02;18.55;;;21.20;66.50;;;;;;5030850;28;20029;-58
2023/09/29 04:02:09;;;;;;;25.85;17.67;;;21.20;66.50;;;;;;5030473;28;20032;-58
2023/09/29 04:04:35;;;;;;;25.33;15.93;;;21.20;66.40;;;;;;5022436;28;20404;-56
2023/09/29 04:07:03;;;;;;;21.00;15.02;;;21.20;66.20;;;;;;5030310;28;20096;-57
2023/09/29 04:09:28;;;;;;;24.08;15.20;;;21.20;66.20;;;;;;5030222;28;20042;-56
2023/09/29 04:11:54;;;;;;;23.15;14.35;;;21.20;66.20;;;;;;5032549;28;20081;-53
2023/09/29 04:14:20;;;;;;;18.40;14.00;;;21.20;66.30;;;;;;5030890;28;20516;-57
2023/09/29 04:16:46;;;;;;;20.17;13.57;;;21.20;66.20;;;;;;5029453;28;20029;-58
2023/09/29 04:19:12;;;;;;;19.70;14.38;;;21.20;66.40;;;;;;5033039;28;20024;-58
2023/09/29 04:21:38;;;;;;;22.23;14.75;;;21.20;66.30;;;;;;5030055;28;20457;-58
2023/09/29 04:24:04;;;;;;;18.60;14.32;;;21.10;66.20;;;;;;5029149;28;20084;-58
2023/09/29 04:26:31;;;;;;;25.33;14.35;;;21.10;66.20;;;;;;5030385;28;20080;-58
2023/09/29 04:28:57;;;;;;;21.20;13.80;;;21.10;66.20;;;;;;5034356;28;20429;-52
2023/09/29 04:31:23;;;;;;;20.30;13.43;;;21.10;66.20;;;;;;5034249;28;20346;-57
2023/09/29 04:33:49;;;;;;;21.67;12.80;;;21.10;66.20;;;;;;5034077;28;20021;-56
2023/09/29 04:36:15;;;;;;;18.48;12.70;;;21.10;66.20;;;;;;5032265;28;20029;-55
2023/09/29 04:38:41;;;;;;;17.92;12.77;;;21.10;66.10;;;;;;5027221;28;20029;-58
2023/09/29 04:41:07;;;;;;;16.33;12.10;;;21.10;66.20;;;;;;5041835;28;20036;-57
2023/09/29 04:43:33;;;;;;;20.05;13.02;;;21.10;66.00;;;;;;5040091;28;20029;-54
2023/09/29 04:45:59;;;;;;;22.73;12.95;;;21.00;66.10;;;;;;5034562;28;20033;-58
2023/09/29 04:48:24;;;;;;;16.67;11.82;;;21.00;65.90;;;;;;5034096;28;20052;-58
2023/09/29 04:50:50;;;;;;;18.50;12.02;;;21.10;65.80;;;;;;5035005;28;20508;-58
2023/09/29 04:53:16;;;;;;;23.75;12.50;;;21.00;65.60;;;;;;5032436;28;20488;-58
2023/09/29 04:55:42;;;;;;;20.35;12.27;;;21.00;65.60;;;;;;5026647;28;20028;-55
2023/09/29 04:58:09;;;;;;;18.50;12.23;;;21.00;65.40;;;;;;5033832;28;20068;-57
2023/09/29 05:00:35;;;;;;;23.33;13.75;;;21.00;65.40;;;;;;5024837;28;20096;-53
2023/09/29 05:03:01;;;;;;;19.20;12.13;;;21.00;65.40;;;;;;5032767;28;20032;-58
2023/09/29 05:05:27;;;;;;;20.98;12.05;;;21.00;65.30;;;;;;5029174;28;20093;-58
2023/09/29 05:07:53;;;;;;;21.00;12.30;;;21.00;65.30;;;;;;5032850;28;20136;-58
2023/09/29 05:10:19;;;;;;;23.20;12.80;;;21.00;65.30;;;;;;5025271;28;20026;-56
2023/09/29 05:12:45;;;;;;;20.90;12.50;;;21.00;65.80;;;;;;5032954;28;20033;-56
2023/09/29 05:15:11;;;;;;;20.35;12.35;;;21.00;65.30;;;;;;5035057;28;20385;-58
2023/09/29 05:17:37;;;;;;;19.67;11.65;;;21.00;65.20;;;;;;5036919;28;20071;-53
2023/09/29 05:20:05;;;;;;;20.33;12.13;;;21.00;65.20;;;;;;5034127;28;20040;-57
2023/09/29 05:22:31;;;;;;;20.55;12.48;;;21.00;65.10;;;;;;5035832;28;20052;-57
2023/09/29 05:25:00;;;;;;;19.58;13.27;;;21.00;65.00;;;;;;5043398;28;20022;-54
2023/09/29 05:27:29;;;;;;;23.80;12.50;;;21.00;65.00;;;;;;5031888;28;20527;-56
2023/09/29 05:29:58;;;;;;;16.65;10.95;;;21.00;65.00;;;;;;5033885;28;20025;-55
2023/09/29 05:32:24;;;;;;;18.15;11.52;;;21.00;64.90;;;;;;5025110;28;20459;-56
2023/09/29 05:34:51;;;;;;;20.92;11.25;;;20.90;64.70;;;;;;5025696;28;20101;-57
2023/09/29 05:37:17;;;;;;;17.08;10.73;;;21.00;64.80;;;;;;5032206;28;20033;-58
2023/09/29 05:39:43;;;;;;;20.20;11.23;;;21.00;64.90;;;;;;5028572;28;20037;-57
2023/09/29 05:42:10;;;;;;;17.38;10.45;;;20.90;64.70;;;;;;5021050;28;20029;-58
2023/09/29 05:44:36;;;;;;;17.08;10.40;;;21.00;64.70;;;;;;5025645;28;20464;-55
2023/09/29 05:47:02;;;;;;;34.08;10.40;;;20.90;64.70;;;;;;5029877;28;20045;-58
2023/09/29 05:49:28;;;;;;;18.20;10.35;;;21.00;64.80;;;;;;5021231;28;20013;-57
2023/09/29 05:51:54;;;;;;;18.00;10.52;;;21.00;65.00;;;;;;5027972;28;20118;-58
2023/09/29 05:54:20;;;;;;;17.45;9.68;;;21.00;65.00;;;;;;5029331;28;20018;-57
2023/09/29 05:56:46;;;;;;;15.25;9.18;;;21.10;64.90;;;;;;5029842;28;20485;-58
2023/09/29 05:59:11;;;;;;;13.38;8.75;;;21.20;65.00;;;;;;5029738;28;20047;-58
2023/09/29 06:01:38;;;;;;;21.65;10.48;;;21.20;65.60;;;;;;5031162;28;20089;-58
2023/09/29 06:04:04;;;;;;;25.98;10.13;;;21.30;65.40;;;;;;5030270;28;20441;-56
2023/09/29 06:06:30;;;;;;;25.95;11.30;;;21.40;66.20;;;;;;5030065;28;20136;-56
2023/09/29 06:08:56;;;;;;;20.55;10.20;;;21.40;66.60;;;;;;5028482;28;20032;-59
2023/09/29 06:11:22;;;;;;;20.38;10.52;;;21.50;68.70;;;;;;5009955;28;20032;-55
2023/09/29 06:13:48;;;;;;;23.15;9.82;;;21.50;68.20;;;;;;5037995;28;20026;-57
2023/09/29 06:16:13;;;;;;;22.40;10.90;;;21.60;66.80;;;;;;5029194;28;20049;-58
2023/09/29 06:18:39;;;;;;;20.05;9.70;;;21.50;68.50;;;;;;5029743;28;20021;-55
2023/09/29 06:21:05;;;;;;;20.98;9.88;;;21.50;66.70;;;;;;5028077;28;20061;-59
2023/09/29 06:23:31;;;;;;;17.38;9.10;;;21.50;68.00;;;;;;5029334;28;20205;-57
2023/09/29 06:25:57;;;;;;;18.85;8.70;;;21.50;66.40;;;;;;5030236;28;20497;-59
2023/09/29 06:28:24;;;;;;;19.67;8.70;;;21.50;65.80;;;;;;5026641;28;20076;-59
2023/09/29 06:30:57;;;;;;;21.27;9.27;;;21.50;65.40;;;;;;5028712;28;20018;-59
2023/09/29 06:33:24;;;;;;;19.42;9.27;;;21.50;66.10;;;;;;5028528;28;20108;-56
2023/09/29 06:35:49;;;;;;;14.13;8.05;;;21.50;65.90;;;;;;5028134;28;20026;-59
2023/09/29 06:38:15;;;;;;;17.08;8.20;;;21.50;66.40;;;;;;5030006;28;20472;-58
2023/09/29 06:40:43;;;;;;;15.00;8.00;;;21.50;66.70;;;;;;5029193;28;20409;-58
2023/09/29 06:43:09;;;;;;;14.18;7.70;;;21.50;66.20;;;;;;5027371;28;20029;-58
2023/09/29 06:45:35;;;;;;;14.40;7.97;;;21.60;66.70;;;;;;5029035;28;20396;-58
2023/09/29 06:48:01;;;;;;;21.30;7.80;;;21.60;67.20;;;;;;5029341;28;20028;-57
2023/09/29 06:50:27;;;;;;;17.10;7.57;;;21.60;67.00;;;;;;5028459;28;20108;-55
2023/09/29 06:52:53;;;;;;;21.08;8.82;;;21.60;67.50;;;;;;5025786;28;20032;-58
2023/09/29 06:55:18;;;;;;;27.00;8.68;;;21.60;67.50;;;;;;5019873;28;20583;-58
2023/09/29 06:57:44;;;;;;;19.52;7.68;;;21.60;66.60;;;;;;5028385;28;20029;-55
2023/09/29 07:00:10;;;;;;;22.70;8.32;;;21.70;67.90;;;;;;5029263;28;20039;-57
2023/09/29 07:02:37;;;;;;;21.10;7.18;;;21.80;66.80;;;;;;5028689;28;20507;-59
2023/09/29 07:05:03;;;;;;;17.88;7.30;;;21.80;66.80;;;;;;5027360;28;20036;-58
2023/09/29 07:07:29;;;;;;;18.20;7.82;;;21.80;66.80;;;;;;5027844;28;20396;-59
2023/09/29 07:09:55;;;;;;;18.40;7.30;;;21.70;66.80;;;;;;5028844;28;20109;-58
2023/09/29 07:12:21;;;;;;;16.23;7.47;;;21.70;66.90;;;;;;5028658;28;20489;-56
2023/09/29 07:14:47;;;;;;;19.67;7.75;;;21.70;67.10;;;;;;5029508;28;20017;-59
2023/09/29 07:17:13;;;;;;;39.15;8.70;;;21.70;67.00;;;;;;5030716;28;20484;-58
2023/09/29 07:19:39;;;;;;;18.10;6.95;;;21.70;67.30;;;;;;5028625;28;20408;-58
2023/09/29 07:22:05;;;;;;;15.13;7.32;;;21.70;67.00;;;;;;5028349;28;20041;-59
2023/09/29 07:24:31;;;;;;;21.73;7.63;;;21.70;66.90;;;;;;5028464;28;20026;-54
2023/09/29 07:26:56;;;;;;;14.75;7.30;;;21.70;67.00;;;;;;5028931;28;20025;-59
2023/09/29 07:29:22;;;;;;;14.07;7.72;;;21.70;67.00;;;;;;5028620;28;20022;-58
2023/09/29 07:31:48;;;;;;;20.83;7.05;;;21.70;67.00;;;;;;5029082;28;20060;-57
2023/09/29 07:34:17;;;;;;;21.55;7.25;;;21.70;67.00;;;;;;5028305;28;20586;-58
2023/09/29 07:36:48;;;;;;;14.25;7.47;;;21.70;67.00;;;;;;5021758;28;20370;-56
2023/09/29 07:39:15;;;;;;;13.90;6.97;;;21.70;67.10;;;;;;5028489;28;20057;-56
2023/09/29 07:41:41;;;;;;;16.77;7.38;;;21.70;67.10;;;;;;5028803;28;20029;-57
2023/09/29 07:44:08;;;;;;;15.05;6.70;;;21.70;67.30;;;;;;5028762;28;20523;-56
2023/09/29 07:46:37;;;;;;;11.45;6.57;;;21.70;67.40;;;;;;5028770;28;20025;-54
2023/09/29 07:49:04;;;;;;;14.32;6.45;;;21.70;67.40;;;;;;5029051;28;20117;-56
2023/09/29 07:51:30;;;;;;;10.88;6.53;;;21.70;67.50;;;;;;5028164;28;20029;-57
2023/09/29 07:53:57;;;;;;;14.32;6.57;;;21.80;67.40;;;;;;5027946;28;20021;-58
2023/09/29 07:56:23;;;;;;;13.23;6.97;;;21.70;67.50;;;;;;5028167;28;20496;-59
2023/09/29 07:58:49;;;;;;;13.68;6.75;;;21.70;67.50;;;;;;5027584;28;20508;-59
2023/09/29 08:01:15;;;;;;;13.25;6.80;;;21.70;67.50;;;;;;5027564;28;20026;-58
2023/09/29 08:03:42;;;;;;;14.38;7.00;;;21.70;67.50;;;;;;5043358;28;20031;-59
2023/09/29 08:06:11;;;;;;;10.13;6.20;;;21.70;67.50;;;;;;5028304;28;20072;-59
2023/09/29 08:08:36;;;;;;;13.73;6.93;;;21.70;67.60;;;;;;5028158;28;20108;-59
2023/09/29 08:11:03;;;;;;;9.68;5.72;;;21.70;67.70;;;;;;5027022;28;20100;-58
2023/09/29 08:13:28;;;;;;;10.60;6.70;;;21.70;67.70;;;;;;5027283;28;20554;-58
2023/09/29 08:15:54;;;;;;;12.02;6.28;;;21.70;67.60;;;;;;5028256;28;20022;-58
2023/09/29 08:18:20;;;;;;;12.43;6.18;;;21.70;67.80;;;;;;5026603;28;20460;-57
2023/09/29 08:20:51;;;;;;;17.08;6.22;;;21.70;67.80;;;;;;5028249;28;20109;-58
2023/09/29 08:23:16;;;;;;;18.27;7.15;;;21.70;67.90;;;;;;5028351;28;20100;-57
2023/09/29 08:25:43;;;;;;;12.38;6.47;;;21.70;69.00;;;;;;5028141;28;20049;-58
2023/09/29 08:28:09;;;;;;;22.20;6.55;;;21.70;68.20;;;;;;5028184;28;20026;-58
2023/09/29 08:30:35;;;;;;;16.60;6.43;;;21.70;68.20;;;;;;5023560;28;20084;-56
2023/09/29 08:33:00;;;;;;;13.02;6.20;;;21.80;68.50;;;;;;5027598;28;20029;-58
2023/09/29 08:35:27;;;;;;;16.13;6.82;;;21.80;68.90;;;;;;5024862;28;20036;-58
2023/09/29 08:37:53;;;;;;;14.85;5.72;;;21.80;68.90;;;;;;5027396;28;20057;-59
2023/09/29 08:40:19;;;;;;;16.10;5.93;;;21.80;68.90;;;;;;5026837;28;20060;-58
2023/09/29 08:42:49;;;;;;;12.45;6.20;;;21.80;68.90;;;;;;5028407;28;20036;-58
2023/09/29 08:45:17;;;;;;;;;;;21.80;69.00;;;;;;5027744;28;20056;-59
2023/09/29 08:47:50;;;;;;;12.35;5.78;;;21.80;69.50;;;;;;5056953;23;20027;-55
2023/09/29 08:50:17;;;;;;;14.65;6.43;;;21.80;69.10;;;;;;5034702;28;20396;-56
2023/09/29 08:52:49;;;;;;;11.75;6.00;;;21.80;69.00;;;;;;5030834;28;20021;-58
2023/09/29 08:55:16;;;;;;;10.57;5.63;;;21.80;69.10;;;;;;5048012;28;20500;-58
2023/09/29 08:57:43;;;;;;;11.85;5.60;;;21.80;69.10;;;;;;5027021;28;20029;-54
2023/09/29 09:00:12;;;;;;;10.15;5.40;;;21.80;69.20;;;;;;5028642;28;20226;-54
2023/09/29 09:02:43;;;;;;;11.05;5.55;;;21.80;69.20;;;;;;5028726;28;20032;-56
2023/09/29 09:05:14;;;;;;;33.58;14.68;;;21.80;69.60;;;;;;5028182;28;20072;-57
2023/09/29 09:07:41;;;;;;;156.10;69.88;;;21.80;69.30;;;;;;5028726;28;20025;-56
2023/09/29 09:10:09;;;;;;;96.15;44.22;;;21.80;69.00;;;;;;5028866;28;20034;-56
2023/09/29 09:12:36;;;;;;;110.95;47.25;;;21.80;68.90;;;;;;5030023;28;20056;-57
2023/09/29 09:15:04;;;;;;;85.75;40.78;;;21.80;68.90;;;;;;5031901;28;20108;-55
2023/09/29 09:17:31;;;;;;;94.82;43.75;;;21.70;68.80;;;;;;5031847;28;20116;-57
2023/09/29 09:19:57;;;;;;;94.43;43.97;;;21.80;68.90;;;;;;5031985;28;20389;-57
2023/09/29 09:22:31;;;;;;;55.58;26.48;;;21.80;69.40;;;;;;5031977;28;20033;-56
2023/09/29 09:25:02;;;;;;;41.75;20.58;;;21.70;68.80;;;;;;5031636;28;20563;-56
2023/09/29 09:27:41;;;;;;;38.63;18.52;;;21.80;69.10;;;;;;5031967;28;20042;-59
2023/09/29 09:30:23;;;;;;;40.60;17.92;;;21.80;68.60;;;;;;5031808;28;20043;-64
2023/09/29 09:32:49;;;;;;;31.98;15.02;;;21.90;68.70;;;;;;5014185;28;20034;-63
2023/09/29 09:35:26;;;;;;;35.97;17.30;;;21.80;68.40;;;;;;5031971;28;20100;-63
2023/09/29 09:37:52;;;;;;;34.97;16.25;;;21.80;68.60;;;;;;5032248;28;20191;-63
2023/09/29 09:40:19;;;;;;;30.63;14.52;;;21.80;68.70;;;;;;5033146;28;20031;-64
2023/09/29 09:42:46;;;;;;;29.85;14.35;;;21.80;68.70;;;;;;5032540;28;20528;-63
2023/09/29 09:45:13;;;;;;;21.88;11.23;;;21.80;68.90;;;;;;5031422;28;20039;-63
2023/09/29 09:47:45;;;;;;;21.33;9.30;;;21.80;68.90;;;;;;5031201;28;20401;-63
2023/09/29 09:50:14;;;;;;;24.05;8.48;;;21.80;68.90;;;;;;5031621;28;20563;-63
2023/09/29 09:52:42;;;;;;;18.35;8.05;;;21.90;68.80;;;;;;5031426;28;20021;-63
2023/09/29 09:55:13;;;;;;;18.00;8.20;;;21.80;68.70;;;;;;5030962;28;20033;-63
2023/09/29 09:57:43;;;;;;;23.85;9.00;;;21.80;68.60;;;;;;5013476;28;20535;-63
2023/09/29 10:00:11;;;;;;;20.85;8.45;;;21.80;68.70;;;;;;5031490;28;20025;-63
2023/09/29 10:02:46;;;;;;;17.38;7.63;;;21.80;68.70;;;;;;5031128;28;20033;-63
2023/09/29 10:05:22;;;;;;;18.58;7.70;;;21.90;68.60;;;;;;5030877;28;20032;-64
2023/09/29 10:08:05;;;;;;;17.15;7.60;;;21.80;68.40;;;;;;5031100;28;20027;-63
2023/09/29 10:10:33;;;;;;;13.38;7.10;;;21.80;68.70;;;;;;5031228;28;20068;-64
2023/09/29 10:13:05;;;;;;;16.27;7.07;;;21.90;68.50;;;;;;5030889;28;20455;-63
2023/09/29 10:15:32;;;;;;;10.98;6.20;;;21.80;68.40;;;;;;5032455;28;20380;-63
2023/09/29 10:18:14;;;;;;;14.85;6.72;;;21.80;68.40;;;;;;5030844;28;20432;-63
2023/09/29 10:20:40;;;;;;;14.18;6.60;;;21.80;68.50;;;;;;5030947;28;20022;-63
2023/09/29 10:23:10;;;;;;;14.13;6.03;;;21.80;68.70;;;;;;5030671;28;20382;-63
2023/09/29 10:25:37;;;;;;;14.05;6.82;;;21.80;68.60;;;;;;5030046;28;20026;-63
2023/09/29 10:28:08;;;;;;;15.73;6.50;;;21.80;68.80;;;;;;5030599;28;20145;-63
2023/09/29 10:30:35;;;;;;;11.27;6.38;;;21.80;68.80;;;;;;5030621;28;20456;-63
2023/09/29 10:33:13;;;;;;;22.88;6.50;;;21.80;68.90;;;;;;5030450;28;20026;-63
2023/09/29 10:35:46;;;;;;;14.00;6.45;;;21.80;68.90;;;;;;5030531;28;20421;-63
2023/09/29 10:38:30;;;;;;;14.32;5.70;;;21.80;68.90;;;;;;5012868;28;20158;-63
2023/09/29 10:40:58;;;;;;;11.35;6.05;;;21.80;69.10;;;;;;5030427;28;20075;-63
2023/09/29 10:43:24;;;;;;;12.25;5.82;;;21.80;69.30;;;;;;5012675;28;20513;-63
2023/09/29 10:45:51;;;;;;;14.35;6.43;;;21.80;69.00;;;;;;5030219;28;20018;-64
2023/09/29 10:48:23;;;;;;;13.50;5.80;;;21.80;69.00;;;;;;5030181;28;20093;-63
2023/09/29 10:50:51;;;;;;;12.85;5.80;;;21.90;69.20;;;;;;5030245;28;20021;-63
2023/09/29 10:53:22;;;;;;;13.60;6.25;;;21.80;69.10;;;;;;5029756;28;20111;-63
2023/09/29 10:55:50;;;;;;;16.65;6.15;;;21.80;69.10;;;;;;5030175;28;20055;-63
2023/09/29 10:58:18;;;;;;;12.48;6.03;;;21.80;69.10;;;;;;5030274;28;20025;-64
2023/09/29 11:00:51;;;;;;;13.63;6.28;;;21.80;69.20;;;;;;5030175;28;20108;-63
2023/09/29 11:03:21;;;;;;;18.48;6.10;;;21.80;69.20;;;;;;5029823;28;20040;-63
2023/09/29 11:05:55;;;;;;;19.58;7.18;;;21.90;69.70;;;;;;5029754;28;20075;-63
2023/09/29 11:08:34;;;;;;;15.63;6.35;;;21.80;69.60;;;;;;5029906;28;20104;-63
2023/09/29 11:11:01;;;;;;;10.43;5.97;;;21.80;69.50;;;;;;5029895;28;20096;-63
2023/09/29 11:13:27;;;;;;;16.35;6.88;;;21.90;69.50;;;;;;5029483;28;20556;-63
2023/09/29 11:15:54;;;;;;;21.60;6.97;;;21.90;69.60;;;;;;5029743;28;20014;-63
2023/09/29 11:18:35;;;;;;;13.40;6.53;;;21.90;69.50;;;;;;5029420;28;20484;-63
2023/09/29 11:21:09;;;;;;;14.18;6.53;;;21.90;69.50;;;;;;5029671;28;20029;-64
2023/09/29 11:23:39;;;;;;;16.95;7.63;;;21.90;69.50;;;;;;5029470;28;20497;-63
2023/09/29 11:26:10;;;;;;;19.58;8.30;;;21.90;69.60;;;;;;5029324;28;20091;-63
2023/09/29 11:28:47;;;;;;;30.45;9.65;;;21.90;69.70;;;;;;5028716;28;20113;-58
2023/09/29 11:31:15;;;;;;;24.13;8.25;;;21.90;69.90;;;;;;5029101;28;20064;-63
2023/09/29 11:33:42;;;;;;;17.63;8.02;;;22.00;69.80;;;;;;5028740;28;20477;-63
2023/09/29 11:36:18;;;;;;;16.80;7.75;;;21.90;69.70;;;;;;5010924;28;20132;-63
2023/09/29 11:38:45;;;;;;;16.92;7.60;;;21.90;69.60;;;;;;5029659;28;20426;-63
2023/09/29 11:41:15;;;;;;;18.27;7.35;;;21.90;69.60;;;;;;5028468;28;20033;-63
2023/09/29 11:43:41;;;;;;;;;;;21.90;69.60;;;;;;5011148;28;20547;-63
2023/09/29 11:46:07;;;;;;;16.70;7.50;;;21.90;69.50;;;;;;5029104;28;19917;-63
2023/09/29 11:48:33;;;;;;;22.23;7.68;;;21.90;69.50;;;;;;5011220;28;20344;-63
2023/09/29 11:50:59;;;;;;;19.52;7.75;;;21.80;69.50;;;;;;5028931;28;20264;-63
2023/09/29 11:53:25;;;;;;;14.45;7.22;;;21.80;69.50;;;;;;5028469;28;20045;-63
2023/09/29 11:55:54;;;;;;;13.43;8.10;;;21.80;69.40;;;;;;5028319;28;20063;-63
2023/09/29 11:58:20;;;;;;;15.00;6.20;;;21.80;69.40;;;;;;5013602;28;20052;-63
2023/09/29 12:00:47;;;;;;;16.63;6.95;;;21.90;69.50;;;;;;5028543;28;20026;-64
2023/09/29 12:03:13;;;;;;;12.25;6.93;;;21.90;69.50;;;;;;5010431;28;20032;-63
2023/09/29 12:05:44;;;;;;;16.90;7.13;;;21.90;69.40;;;;;;5029178;28;20120;-63
2023/09/29 12:08:10;;;;;;;17.45;7.13;;;21.90;69.40;;;;;;5010769;28;20059;-63
2023/09/29 12:10:36;;;;;;;19.23;7.20;;;21.90;69.40;;;;;;5028383;28;20061;-63
2023/09/29 12:13:04;;;;;;;11.32;6.40;;;21.90;69.30;;;;;;5028032;28;20056;-63
2023/09/29 12:15:31;;;;;;;17.48;7.20;;;21.90;69.30;;;;;;5010755;28;20110;-63
2023/09/29 12:17:57;;;;;;;13.95;7.13;;;21.90;69.30;;;;;;5029795;28;20076;-64
2023/09/29 12:20:24;;;;;;;15.98;7.10;;;21.90;69.30;;;;;;5028293;28;20029;-64
2023/09/29 12:22:51;;;;;;;15.20;6.75;;;21.90;69.30;;;;;;5028311;28;20574;-64
2023/09/29 12:25:16;;;;;;;12.93;6.88;;;22.00;69.40;;;;;;5028435;28;20099;-64
2023/09/29 12:27:44;;;;;;;12.88;6.70;;;21.90;69.30;;;;;;5031764;28;20037;-63
2023/09/29 12:30:12;;;;;;;11.18;6.10;;;21.90;69.30;;;;;;5048321;28;20071;-63
2023/09/29 12:32:39;;;;;;;10.70;6.43;;;22.00;69.30;;;;;;5017253;28;20056;-63
2023/09/29 12:35:06;;;;;;;17.42;7.20;;;22.00;70.00;;;;;;5028841;28;20485;-64
2023/09/29 12:37:32;;;;;;;11.98;7.00;;;21.90;69.80;;;;;;5028013;28;20459;-63